createdAt,value
2023-01-15T00:01:40.268Z,2.15
2023-01-15T00:04:07.674Z,3.17
2023-01-15T00:06:39.813Z,2.38
2023-01-15T00:09:07.778Z,2.45
2023-01-15T00:11:34.299Z,3.10
2023-01-15T00:14:01.346Z,2.28
2023-01-15T00:16:28.244Z,2.90
2023-01-15T00:18:57.241Z,2.25
2023-01-15T00:21:25.481Z,2.17
2023-01-15T00:24:10.768Z,2.10
2023-01-15T00:26:56.818Z,2.53
2023-01-15T00:29:24.198Z,2.55
2023-01-15T00:32:00.617Z,2.55
2023-01-15T00:34:27.604Z,2.00
2023-01-15T00:36:54.520Z,2.10
2023-01-15T00:39:21.391Z,2.30
2023-01-15T00:41:48.151Z,2.00
2023-01-15T00:44:14.563Z,4.43
2023-01-15T00:46:41.311Z,1.98
2023-01-15T00:49:08.076Z,1.87
2023-01-15T00:51:34.670Z,2.22
2023-01-15T00:54:01.319Z,2.85
2023-01-15T00:56:27.938Z,2.03
2023-01-15T00:58:54.394Z,1.98
2023-01-15T01:01:21.519Z,2.30
2023-01-15T01:03:50.143Z,2.17
2023-01-15T01:06:17.043Z,1.90
2023-01-15T01:08:46.124Z,1.80
2023-01-15T01:11:15.973Z,2.10
2023-01-15T01:13:42.903Z,2.60
2023-01-15T01:16:38.438Z,2.10
2023-01-15T01:19:08.857Z,1.77
2023-01-15T01:21:37.276Z,2.05
2023-01-15T01:24:04.098Z,1.80
2023-01-15T01:26:31.060Z,1.80
2023-01-15T01:28:58.222Z,2.67
2023-01-15T01:31:25.041Z,2.20
2023-01-15T01:33:53.939Z,1.70
2023-01-15T01:36:21.178Z,1.90
2023-01-15T01:38:49.788Z,1.80
2023-01-15T01:41:18.014Z,2.00
2023-01-15T01:44:01.558Z,2.17
2023-01-15T01:46:30.557Z,1.70
2023-01-15T01:49:04.435Z,2.20
2023-01-15T01:51:37.663Z,1.80
2023-01-15T01:54:04.864Z,1.73
2023-01-15T01:56:34.885Z,3.00
2023-01-15T01:59:03.034Z,2.30
2023-01-15T02:01:29.743Z,1.90
2023-01-15T02:03:57.022Z,1.87
2023-01-15T02:06:26.207Z,1.70
2023-01-15T02:08:52.947Z,1.70
2023-01-15T02:11:23.184Z,2.13
2023-01-15T02:14:02.007Z,1.70
2023-01-15T02:16:40.190Z,2.00
2023-01-15T02:19:17.742Z,2.22
2023-01-15T02:22:11.348Z,1.75
2023-01-15T02:25:00.570Z,2.15
2023-01-15T02:27:28.019Z,3.88
2023-01-15T02:30:13.163Z,2.10
2023-01-15T02:32:45.883Z,2.10
2023-01-15T02:35:20.804Z,2.03
2023-01-15T02:37:52.067Z,2.00
2023-01-15T02:40:21.784Z,1.70
2023-01-15T02:42:49.567Z,1.90
2023-01-15T02:45:24.176Z,1.65
2023-01-15T02:47:52.811Z,1.70
2023-01-15T02:50:25.536Z,1.73
2023-01-15T02:52:57.615Z,1.83
2023-01-15T02:55:33.027Z,2.57
2023-01-15T02:58:04.150Z,2.08
2023-01-15T03:00:35.575Z,1.60
2023-01-15T03:03:10.881Z,2.33
2023-01-15T03:05:45.880Z,2.33
2023-01-15T03:08:12.511Z,1.60
2023-01-15T03:10:48.190Z,1.73
2023-01-15T03:13:23.822Z,2.13
2023-01-15T03:16:19.172Z,1.85
2023-01-15T03:19:06.967Z,1.90
2023-01-15T03:21:48.232Z,2.80
2023-01-15T03:24:21.461Z,2.38
2023-01-15T03:26:47.984Z,1.75
2023-01-15T03:29:15.250Z,2.10
2023-01-15T03:31:41.844Z,3.15
2023-01-15T03:34:08.884Z,1.90
2023-01-15T03:36:35.405Z,1.98
2023-01-15T03:39:01.940Z,2.75
2023-01-15T03:41:32.314Z,2.47
2023-01-15T03:44:10.772Z,3.75
2023-01-15T03:46:42.309Z,2.10
2023-01-15T03:49:40.224Z,2.00
2023-01-15T03:52:37.307Z,3.25
2023-01-15T03:55:20.388Z,4.93
2023-01-15T03:57:59.809Z,1.90
2023-01-15T04:00:44.733Z,3.67
2023-01-15T04:03:12.730Z,2.22
2023-01-15T04:05:40.205Z,2.50
2023-01-15T04:08:07.628Z,3.08
2023-01-15T04:10:34.110Z,1.80
2023-01-15T04:13:00.592Z,2.00
2023-01-15T04:15:27.000Z,2.25
2023-01-15T04:17:53.412Z,2.40
2023-01-15T04:20:20.034Z,2.50
2023-01-15T04:22:46.550Z,2.88
2023-01-15T04:25:13.127Z,1.80
2023-01-15T04:27:39.614Z,2.65
2023-01-15T04:30:06.753Z,1.80
2023-01-15T04:32:33.231Z,2.00
2023-01-15T04:34:59.679Z,2.95
2023-01-15T04:37:26.064Z,1.97
2023-01-15T04:39:52.420Z,4.53
2023-01-15T04:42:37.422Z,2.50
2023-01-15T04:45:04.418Z,3.92
2023-01-15T04:47:31.203Z,2.90
2023-01-15T04:49:57.592Z,2.47
2023-01-15T04:52:24.044Z,3.17
2023-01-15T04:54:50.398Z,2.83
2023-01-15T04:57:16.970Z,2.13
2023-01-15T04:59:43.400Z,1.90
2023-01-15T05:02:09.969Z,1.80
2023-01-15T05:04:36.860Z,1.70
2023-01-15T05:07:04.851Z,1.73
2023-01-15T05:09:32.192Z,2.78
2023-01-15T05:11:58.630Z,1.73
2023-01-15T05:14:25.054Z,2.33
2023-01-15T05:16:51.671Z,2.78
2023-01-15T05:19:18.179Z,3.05
2023-01-15T05:21:45.394Z,1.80
2023-01-15T05:24:14.764Z,2.25
2023-01-15T05:26:42.107Z,2.73
2023-01-15T05:29:08.563Z,3.38
2023-01-15T05:31:34.994Z,2.35
2023-01-15T05:34:01.781Z,2.00
2023-01-15T05:36:31.423Z,2.75
2023-01-15T05:39:01.507Z,1.93
2023-01-15T05:41:47.548Z,1.95
2023-01-15T05:44:16.040Z,1.77
2023-01-15T05:46:44.073Z,2.10
2023-01-15T05:49:19.382Z,3.03
2023-01-15T05:51:46.881Z,2.00
2023-01-15T05:54:16.599Z,2.88
2023-01-15T05:56:45.448Z,1.92
2023-01-15T05:59:12.970Z,3.00
2023-01-15T06:01:40.738Z,2.25
2023-01-15T06:04:07.548Z,2.40
2023-01-15T06:06:35.589Z,2.65
2023-01-15T06:09:03.387Z,2.40
2023-01-15T06:11:30.267Z,2.42
2023-01-15T06:13:56.731Z,2.10
2023-01-15T06:16:23.481Z,2.03
2023-01-15T06:18:50.283Z,1.80
2023-01-15T06:21:17.643Z,3.03
2023-01-15T06:23:44.950Z,2.10
2023-01-15T06:26:17.079Z,5.63
2023-01-15T06:28:44.299Z,2.67
2023-01-15T06:31:14.011Z,1.80
2023-01-15T06:33:41.031Z,2.35
2023-01-15T06:36:10.997Z,3.08
2023-01-15T06:38:38.116Z,1.80
2023-01-15T06:41:26.188Z,2.53
2023-01-15T06:44:11.366Z,1.70
2023-01-15T06:47:01.015Z,2.60
2023-01-15T06:49:27.429Z,1.70
2023-01-15T06:51:53.903Z,2.80
2023-01-15T06:54:20.336Z,2.77
2023-01-15T06:56:46.799Z,2.22
2023-01-15T06:59:13.265Z,2.08
2023-01-15T07:01:39.772Z,2.25
2023-01-15T07:04:06.247Z,1.98
2023-01-15T07:06:32.703Z,2.00
2023-01-15T07:08:59.413Z,2.95
2023-01-15T07:11:25.985Z,2.45
2023-01-15T07:14:05.643Z,2.00
2023-01-15T07:16:33.876Z,2.33
2023-01-15T07:19:01.156Z,2.27
2023-01-15T07:21:27.701Z,2.05
2023-01-15T07:23:55.172Z,2.00
2023-01-15T07:26:21.625Z,1.70
2023-01-15T07:28:47.990Z,1.70
2023-01-15T07:31:14.467Z,2.47
2023-01-15T07:33:40.966Z,2.35
2023-01-15T07:36:07.938Z,2.75
2023-01-15T07:38:34.553Z,1.85
2023-01-15T07:41:20.086Z,1.80
2023-01-15T07:44:05.467Z,2.83
2023-01-15T07:46:50.859Z,1.80
2023-01-15T07:49:35.620Z,11.40
2023-01-15T07:52:02.104Z,3.53
2023-01-15T07:54:29.255Z,2.85
2023-01-15T07:56:56.466Z,6.60
2023-01-15T07:59:25.043Z,5.68
2023-01-15T08:01:51.796Z,4.55
2023-01-15T08:04:18.386Z,3.25
2023-01-15T08:06:44.809Z,2.75
2023-01-15T08:09:11.339Z,2.97
2023-01-15T08:11:56.228Z,3.13
2023-01-15T08:14:40.961Z,3.42
2023-01-15T08:17:07.377Z,2.72
2023-01-15T08:19:34.052Z,2.50
2023-01-15T08:22:01.510Z,3.33
2023-01-15T08:24:28.327Z,3.47
2023-01-15T08:26:55.481Z,8.52
2023-01-15T08:29:22.523Z,4.28
2023-01-15T08:31:49.181Z,4.60
2023-01-15T08:34:15.717Z,3.60
2023-01-15T08:36:42.247Z,2.05
2023-01-15T08:39:08.864Z,1.88
2023-01-15T08:41:35.302Z,1.75
2023-01-15T08:44:01.875Z,1.98
2023-01-15T08:46:28.414Z,2.17
2023-01-15T08:48:54.950Z,1.92
2023-01-15T08:51:21.445Z,2.20
2023-01-15T08:53:47.867Z,2.25
2023-01-15T08:56:15.809Z,2.13
2023-01-15T08:58:42.925Z,2.70
2023-01-15T09:01:12.111Z,2.00
2023-01-15T09:03:38.615Z,2.08
2023-01-15T09:06:06.135Z,3.42
2023-01-15T09:08:32.610Z,4.65
2023-01-15T09:11:01.443Z,2.00
2023-01-15T09:13:29.223Z,3.13
2023-01-15T09:16:00.556Z,2.00
2023-01-15T09:18:27.483Z,1.77
2023-01-15T09:20:53.951Z,2.03
2023-01-15T09:23:20.505Z,2.83
2023-01-15T09:25:58.526Z,2.70
2023-01-15T09:28:25.086Z,3.17
2023-01-15T09:30:51.846Z,2.35
2023-01-15T09:33:18.829Z,2.25
2023-01-15T09:35:46.077Z,2.20
2023-01-15T09:38:17.600Z,2.00
2023-01-15T09:40:55.595Z,1.80
2023-01-15T09:43:53.915Z,2.60
2023-01-15T09:46:25.945Z,1.60
2023-01-15T09:49:14.397Z,1.60
2023-01-15T09:52:13.125Z,1.85
2023-01-15T09:54:47.888Z,2.40
2023-01-15T09:57:16.601Z,2.15
2023-01-15T09:59:49.004Z,2.38
2023-01-15T10:02:30.690Z,2.10
2023-01-15T10:05:09.580Z,2.20
2023-01-15T10:07:51.051Z,3.33
2023-01-15T10:10:23.236Z,2.17
2023-01-15T10:12:56.624Z,2.00
2023-01-15T10:15:41.436Z,4.60
2023-01-15T10:18:16.183Z,3.03
2023-01-15T10:21:30.877Z,2.45
2023-01-15T10:24:22.752Z,2.60
2023-01-15T10:26:59.290Z,2.22
2023-01-15T10:29:44.023Z,2.80
2023-01-15T10:32:23.072Z,3.53
2023-01-15T10:35:17.843Z,2.58
2023-01-15T10:37:54.401Z,3.55
2023-01-15T10:40:39.060Z,3.45
2023-01-15T10:43:38.044Z,5.10
2023-01-15T10:46:14.016Z,2.20
2023-01-15T10:48:43.471Z,4.88
2023-01-15T10:51:18.185Z,6.93
2023-01-15T10:53:57.232Z,5.93
2023-01-15T10:56:40.440Z,3.93
2023-01-15T10:59:17.473Z,9.20
2023-01-15T11:01:44.422Z,6.45
2023-01-15T11:04:14.806Z,5.25
2023-01-15T11:06:41.930Z,3.58
2023-01-15T11:09:18.915Z,4.13
2023-01-15T11:12:00.010Z,5.10
2023-01-15T11:15:02.272Z,5.90
2023-01-15T11:17:51.030Z,5.78
2023-01-15T11:20:31.160Z,6.63
2023-01-15T11:23:14.024Z,6.27
2023-01-15T11:25:55.077Z,3.15
2023-01-15T11:28:35.321Z,3.63
2023-01-15T11:31:02.896Z,3.47
2023-01-15T11:33:31.931Z,8.68
2023-01-15T11:36:07.146Z,4.27
2023-01-15T11:38:45.471Z,4.45
2023-01-15T11:41:46.204Z,10.05
2023-01-15T11:44:32.581Z,4.75
2023-01-15T11:47:17.818Z,9.38
2023-01-15T11:50:12.898Z,11.63
2023-01-15T11:52:47.427Z,5.72
2023-01-15T11:55:19.396Z,4.35
2023-01-15T11:57:46.518Z,5.57
2023-01-15T12:00:36.069Z,5.13
2023-01-15T12:03:12.667Z,16.53
2023-01-15T12:06:00.006Z,5.25
2023-01-15T12:08:51.728Z,4.22
2023-01-15T12:11:36.510Z,7.03
2023-01-15T12:14:25.523Z,4.32
2023-01-15T12:17:14.407Z,3.23
2023-01-15T12:19:54.999Z,4.68
2023-01-15T12:22:33.492Z,3.25
2023-01-15T12:25:02.949Z,4.93
2023-01-15T12:27:53.973Z,3.65
2023-01-15T12:30:52.986Z,3.23
2023-01-15T12:33:45.374Z,4.93
2023-01-15T12:36:20.664Z,7.40
2023-01-15T12:39:01.647Z,5.63
2023-01-15T12:41:52.280Z,6.40
2023-01-15T12:44:57.840Z,4.50
2023-01-15T12:47:49.478Z,4.22
2023-01-15T12:50:48.611Z,5.18
2023-01-15T12:53:27.719Z,6.70
2023-01-15T12:55:58.338Z,3.25
2023-01-15T12:58:40.940Z,5.73
2023-01-15T13:01:21.664Z,6.38
2023-01-15T13:04:07.449Z,6.90
2023-01-15T13:06:39.090Z,3.65
2023-01-15T13:09:18.135Z,5.18
2023-01-15T13:11:44.673Z,4.27
2023-01-15T13:14:18.515Z,3.08
2023-01-15T13:17:00.585Z,4.75
2023-01-15T13:19:38.696Z,4.95
2023-01-15T13:22:13.561Z,7.03
2023-01-15T13:24:57.426Z,5.87
2023-01-15T13:27:52.057Z,4.15
2023-01-15T13:30:30.599Z,4.47
2023-01-15T13:33:06.773Z,5.00
2023-01-15T13:35:46.821Z,4.18
2023-01-15T13:38:20.180Z,4.00
2023-01-15T13:40:52.165Z,6.07
2023-01-15T13:43:40.316Z,4.45
2023-01-15T13:46:12.425Z,5.55
2023-01-15T13:48:45.389Z,7.05
2023-01-15T13:51:39.193Z,4.33
2023-01-15T13:54:16.140Z,5.00
2023-01-15T13:56:44.589Z,5.72
2023-01-15T13:59:34.565Z,3.35
2023-01-15T14:02:01.060Z,3.60
2023-01-15T14:04:38.677Z,4.37
2023-01-15T14:07:19.361Z,4.63
2023-01-15T14:09:45.872Z,3.45
2023-01-15T14:12:37.244Z,4.18
2023-01-15T14:15:42.358Z,5.95
2023-01-15T14:18:34.100Z,3.60
2023-01-15T14:21:24.933Z,3.55
2023-01-15T14:24:16.199Z,4.20
2023-01-15T14:27:11.699Z,7.93
2023-01-15T14:29:56.957Z,10.93
2023-01-15T14:32:49.513Z,6.53
2023-01-15T14:35:21.874Z,4.93
2023-01-15T14:37:54.781Z,4.07
2023-01-15T14:40:34.491Z,3.90
2023-01-15T14:43:13.008Z,5.57
2023-01-15T14:45:46.540Z,5.40
2023-01-15T14:48:36.161Z,4.70
2023-01-15T14:51:31.905Z,6.07
2023-01-15T14:54:03.121Z,10.52
2023-01-15T14:56:34.816Z,3.95
2023-01-15T14:59:36.760Z,5.07
2023-01-15T15:02:15.947Z,3.72
2023-01-15T15:04:53.936Z,7.63
2023-01-15T15:07:23.171Z,5.03
2023-01-15T15:10:11.191Z,4.90
2023-01-15T15:12:46.796Z,4.23
2023-01-15T15:15:25.058Z,6.00
2023-01-15T15:18:12.915Z,6.40
2023-01-15T15:20:42.105Z,4.97
2023-01-15T15:23:52.829Z,7.25
2023-01-15T15:26:29.013Z,6.27
2023-01-15T15:29:07.862Z,4.85
2023-01-15T15:31:37.770Z,7.20
2023-01-15T15:34:07.227Z,7.95
2023-01-15T15:36:39.060Z,6.13
2023-01-15T15:39:20.152Z,3.73
2023-01-15T15:42:07.982Z,8.32
2023-01-15T15:44:55.737Z,5.82
2023-01-15T15:47:43.371Z,6.65
2023-01-15T15:50:24.163Z,4.82
2023-01-15T15:52:51.382Z,4.50
2023-01-15T15:55:19.752Z,7.47
2023-01-15T15:57:49.913Z,5.30
2023-01-15T16:00:19.677Z,4.75
2023-01-15T16:02:46.899Z,5.60
2023-01-15T16:05:19.380Z,6.33
2023-01-15T16:07:46.660Z,6.20
2023-01-15T16:10:18.111Z,4.85
2023-01-15T16:12:48.123Z,4.55
2023-01-15T16:15:17.019Z,4.88
2023-01-15T16:17:45.227Z,3.33
2023-01-15T16:20:18.075Z,4.90
2023-01-15T16:22:46.885Z,5.60
2023-01-15T16:25:37.777Z,8.95
2023-01-15T16:28:05.254Z,5.07
2023-01-15T16:30:32.992Z,7.07
2023-01-15T16:33:02.562Z,5.93
2023-01-15T16:35:31.205Z,4.82
2023-01-15T16:38:00.682Z,5.93
2023-01-15T16:40:33.162Z,5.03
2023-01-15T16:43:12.891Z,11.97
2023-01-15T16:45:59.735Z,7.63
2023-01-15T16:48:38.461Z,7.70
2023-01-15T16:51:26.911Z,9.63
2023-01-15T16:53:54.096Z,10.57
2023-01-15T16:56:47.908Z,9.63
2023-01-15T16:59:27.565Z,9.05
2023-01-15T17:01:57.258Z,8.38
2023-01-15T17:04:33.444Z,6.35
2023-01-15T17:07:07.327Z,6.55
2023-01-15T17:09:36.423Z,5.23
2023-01-15T17:12:09.055Z,6.25
2023-01-15T17:14:35.568Z,6.25
2023-01-15T17:17:21.137Z,7.68
2023-01-15T17:19:51.349Z,5.75
2023-01-15T17:22:28.189Z,4.27
2023-01-15T17:24:57.350Z,5.15
2023-01-15T17:27:25.171Z,7.40
2023-01-15T17:29:52.539Z,8.35
2023-01-15T17:32:36.003Z,6.22
2023-01-15T17:35:02.476Z,4.73
2023-01-15T17:37:28.892Z,5.88
2023-01-15T17:39:55.369Z,6.80
2023-01-15T17:42:21.838Z,6.30
2023-01-15T17:44:48.233Z,2.80
2023-01-15T17:47:15.196Z,4.67
2023-01-15T17:49:41.762Z,4.13
2023-01-15T17:52:16.697Z,7.65
2023-01-15T17:55:01.663Z,7.53
2023-01-15T17:57:46.516Z,7.25
2023-01-15T18:00:32.292Z,7.77
2023-01-15T18:03:18.608Z,4.32
2023-01-15T18:05:48.188Z,5.32
2023-01-15T18:08:15.478Z,6.63
2023-01-15T18:10:41.997Z,6.35
2023-01-15T18:13:08.671Z,5.37
2023-01-15T18:15:35.109Z,5.57
2023-01-15T18:18:01.509Z,5.85
2023-01-15T18:20:28.122Z,4.55
2023-01-15T18:22:54.562Z,9.73
2023-01-15T18:25:21.033Z,7.27
2023-01-15T18:27:47.827Z,7.60
2023-01-15T18:30:15.815Z,4.55
2023-01-15T18:32:43.063Z,7.65
2023-01-15T18:35:11.414Z,5.07
2023-01-15T18:37:38.236Z,5.10
2023-01-15T18:40:05.319Z,6.70
2023-01-15T18:42:50.432Z,3.80
2023-01-15T18:45:35.703Z,5.70
2023-01-15T18:48:02.888Z,4.13
2023-01-15T18:50:29.661Z,4.67
2023-01-15T18:52:56.235Z,7.28
2023-01-15T18:55:27.094Z,3.75
2023-01-15T18:57:54.682Z,6.50
2023-01-15T19:00:23.688Z,3.90
2023-01-15T19:02:51.242Z,9.43
2023-01-15T19:05:20.796Z,10.27
2023-01-15T19:07:47.826Z,5.60
2023-01-15T19:10:17.025Z,4.82
2023-01-15T19:12:46.809Z,6.93
2023-01-15T19:15:35.848Z,5.73
2023-01-15T19:18:22.133Z,11.75
2023-01-15T19:20:48.795Z,9.18
2023-01-15T19:23:15.352Z,7.97
2023-01-15T19:25:46.576Z,6.43
2023-01-15T19:28:16.168Z,4.23
2023-01-15T19:30:43.324Z,6.90
2023-01-15T19:33:10.097Z,7.53
2023-01-15T19:35:38.978Z,11.80
2023-01-15T19:38:08.474Z,7.88
2023-01-15T19:40:40.206Z,6.43
2023-01-15T19:43:25.044Z,7.88
2023-01-15T19:46:10.355Z,7.00
2023-01-15T19:48:55.618Z,6.78
2023-01-15T19:51:22.117Z,9.95
2023-01-15T19:53:48.760Z,7.07
2023-01-15T19:56:15.208Z,5.30
2023-01-15T19:58:41.982Z,8.52
2023-01-15T20:01:15.612Z,6.68
2023-01-15T20:03:42.197Z,4.65
2023-01-15T20:06:08.863Z,4.87
2023-01-15T20:08:35.413Z,3.22
2023-01-15T20:11:01.924Z,7.35
2023-01-15T20:13:46.931Z,4.88
2023-01-15T20:16:18.313Z,5.95
2023-01-15T20:18:47.853Z,6.07
2023-01-15T20:21:15.631Z,8.23
2023-01-15T20:23:43.279Z,4.22
2023-01-15T20:26:12.032Z,6.57
2023-01-15T20:28:41.783Z,6.20
2023-01-15T20:31:15.530Z,8.60
2023-01-15T20:33:42.074Z,6.05
2023-01-15T20:36:09.085Z,6.07
2023-01-15T20:38:35.617Z,4.00
2023-01-15T20:41:29.999Z,6.72
2023-01-15T20:44:14.792Z,9.50
2023-01-15T20:46:41.308Z,4.53
2023-01-15T20:49:27.456Z,3.65
2023-01-15T20:51:55.710Z,4.53
2023-01-15T20:54:23.351Z,4.68
2023-01-15T20:56:49.712Z,12.23
2023-01-15T20:59:16.285Z,10.45
2023-01-15T21:01:42.943Z,5.78
2023-01-15T21:04:10.552Z,3.65
2023-01-15T21:06:37.073Z,4.18
2023-01-15T21:09:03.681Z,3.37
2023-01-15T21:11:30.204Z,5.50
2023-01-15T21:13:56.653Z,5.55
2023-01-15T21:16:23.263Z,6.68
2023-01-15T21:18:50.139Z,3.67
2023-01-15T21:21:18.336Z,4.43
2023-01-15T21:23:45.775Z,3.90
2023-01-15T21:26:14.452Z,2.95
2023-01-15T21:28:41.238Z,7.15
2023-01-15T21:31:11.828Z,3.80
2023-01-15T21:33:39.813Z,5.50
2023-01-15T21:36:13.146Z,8.65
2023-01-15T21:38:40.037Z,8.85
2023-01-15T21:41:08.651Z,7.65
2023-01-15T21:43:53.328Z,7.78
2023-01-15T21:46:20.377Z,6.60
2023-01-15T21:48:46.957Z,7.05
2023-01-15T21:51:13.347Z,4.60
2023-01-15T21:53:39.744Z,5.32
2023-01-15T21:56:07.195Z,7.90
2023-01-15T21:58:39.914Z,5.33
2023-01-15T22:01:14.398Z,4.90
2023-01-15T22:03:41.198Z,5.40
2023-01-15T22:06:09.637Z,5.55
2023-01-15T22:08:36.630Z,5.60
2023-01-15T22:11:09.338Z,5.10
2023-01-15T22:13:36.558Z,5.53
2023-01-15T22:16:06.864Z,6.28
2023-01-15T22:18:34.194Z,6.57
2023-01-15T22:21:03.229Z,4.47
2023-01-15T22:23:30.117Z,4.23
2023-01-15T22:25:56.706Z,4.32
2023-01-15T22:28:23.462Z,4.50
2023-01-15T22:30:50.109Z,6.78
2023-01-15T22:33:17.187Z,3.85
2023-01-15T22:35:43.639Z,6.53
2023-01-15T22:38:10.075Z,4.72
2023-01-15T22:40:36.726Z,7.13
2023-01-15T22:43:03.138Z,4.53
2023-01-15T22:45:29.705Z,4.90
2023-01-15T22:47:56.191Z,4.40
2023-01-15T22:50:22.630Z,3.58
2023-01-15T22:52:49.066Z,7.90
2023-01-15T22:55:15.585Z,4.85
2023-01-15T22:57:42.046Z,6.07
2023-01-15T23:00:09.081Z,4.03
2023-01-15T23:02:54.095Z,6.28
2023-01-15T23:05:21.089Z,6.40
2023-01-15T23:07:48.670Z,3.40
2023-01-15T23:10:15.437Z,5.63
2023-01-15T23:12:42.670Z,4.77
2023-01-15T23:15:13.196Z,5.05
2023-01-15T23:17:40.171Z,5.93
2023-01-15T23:20:08.593Z,3.10
2023-01-15T23:22:35.369Z,3.97
2023-01-15T23:25:01.947Z,2.43
2023-01-15T23:27:28.396Z,5.00
2023-01-15T23:29:55.002Z,2.55
2023-01-15T23:32:21.413Z,4.30
2023-01-15T23:34:47.858Z,2.83
2023-01-15T23:37:14.280Z,2.57
2023-01-15T23:39:40.692Z,5.88
2023-01-15T23:42:28.252Z,2.55
2023-01-15T23:45:12.866Z,4.47
2023-01-15T23:47:39.245Z,3.55
2023-01-15T23:50:06.186Z,5.30
2023-01-15T23:52:32.683Z,3.03
2023-01-15T23:54:59.099Z,4.32
2023-01-15T23:57:25.520Z,3.38
2023-01-15T23:59:51.940Z,3.42
